Time;durP1;ratioP1;P1;durP2;ratioP2;P2;SDS_P1;SDS_P2;PMS_P1;PMS_P2;Temp;Humidity;BMP_temperature;BMP_pressure;BME280_temperature;BME280_humidity;BME280_pressure;Samples;Min_cycle;Max_cycle;Signal;HPM_P1;HPM_P2
2023/12/12 00:00:56;;;;;;;;;;;;;;;4.59;75.02;99007.34;4404601;32;33277;-92
2023/12/12 00:03:25;;;;;;;;;;;;;;;4.68;74.45;99015.91;4406782;32;33880;-92
2023/12/12 00:05:57;;;;;;;;;;;;;;;4.72;74.07;99011.66;4400892;32;34509;-94
2023/12/12 00:08:26;;;;;;;;;;;;;;;4.84;73.93;99018.50;4401496;32;33939;-92
2023/12/12 00:10:55;;;;;;;;;;;;;;;4.85;73.74;99010.75;4405719;32;33458;-92
2023/12/12 00:13:30;;;;;;;;;;;;;;;4.83;73.55;99014.19;4392542;32;33396;-93
2023/12/12 00:16:00;;;;;;;;;;;;;;;4.81;74.05;99023.63;4401570;32;33642;-92
2023/12/12 00:18:28;;;;;;;;;;;;;;;4.76;74.59;99030.47;4387448;32;33003;-92
2023/12/12 00:21:03;;;;;;;;;;;;;;;4.88;74.22;99035.59;4385900;32;32064;-93
2023/12/12 00:23:33;;;;;;;;;;;;;;;4.89;74.30;99043.31;4398194;32;34375;-92
2023/12/12 00:26:07;;;;;;;;;;;;;;;4.92;74.56;99043.31;4404868;32;34525;-92
2023/12/12 00:28:37;;;;;;;;;;;;;;;4.69;75.44;99045.06;4398286;32;34166;-90
2023/12/12 00:31:11;;;;;;;;;;;;;;;4.62;75.19;99049.31;4399599;32;33406;-90
2023/12/12 00:33:41;;;;;;;;;;;;;;;4.79;75.20;99056.19;4401241;32;34610;-93
2023/12/12 00:36:13;;;;;;;;;;;;;;;4.83;74.35;99052.75;4400378;32;33875;-91
2023/12/12 00:38:48;;;;;;;;;;;;;;;4.95;74.13;99041.59;4404163;32;34912;-90
2023/12/12 00:41:18;;;;;;;;;;;;;;;4.88;74.05;99040.75;4399639;32;33356;-92
2023/12/12 00:43:46;;;;;;;;;;;;;;;4.83;74.48;99029.62;4392423;32;32924;-91
2023/12/12 00:46:18;;;;;;;;;;;;;;;4.95;73.40;99027.03;4398037;32;34335;-90
2023/12/12 00:48:51;;;;;;;;;;;;;;;4.77;74.37;99038.19;4404972;32;35296;-91
2023/12/12 00:51:20;;;;;;;;;;;;;;;4.76;74.25;99040.75;4384203;32;33038;-91
2023/12/12 00:53:54;;;;;;;;;;;;;;;5.00;73.05;99045.91;4404133;32;33755;-93
2023/12/12 00:56:26;;;;;;;;;;;;;;;5.12;72.55;99043.31;4398124;32;34024;-92
2023/12/12 00:58:55;;;;;;;;;;;;;;;4.76;73.75;99048.47;4398467;32;33540;-93
2023/12/12 01:01:24;;;;;;;;;;;;;;;4.48;73.95;99033.91;4404235;32;33994;-91
2023/12/12 01:03:56;;;;;;;;;;;;;;;4.49;73.99;99035.63;4406086;32;34094;-92
2023/12/12 01:06:25;;;;;;;;;;;;;;;4.46;73.99;99050.16;4397791;32;34008;-93
2023/12/12 01:09:06;;;;;;;;;;;;;;;4.32;74.01;99046.72;4385516;32;33405;-92
2023/12/12 01:11:40;;;;;;;;;;;;;;;4.39;73.43;99045.88;4404792;32;32529;-93
2023/12/12 01:14:09;;;;;;;;;;;;;;;4.38;73.47;99050.16;4390040;32;34752;-92
2023/12/12 01:16:38;;;;;;;;;;;;;;;4.50;73.26;99039.03;4399507;32;33765;-90
2023/12/12 01:19:07;;;;;;;;;;;;;;;4.44;73.95;99034.75;4383297;32;33167;-91
2023/12/12 01:21:42;;;;;;;;;;;;;;;4.41;74.09;99050.16;4386508;32;32285;-91
2023/12/12 01:24:10;;;;;;;;;;;;;;;4.24;74.97;99042.44;4404685;32;34470;-93
2023/12/12 01:26:43;;;;;;;;;;;;;;;4.41;74.42;99049.31;4396457;32;34290;-92
2023/12/12 01:29:14;;;;;;;;;;;;;;;4.52;74.21;99047.63;4399320;32;34156;-93
2023/12/12 01:31:43;;;;;;;;;;;;;;;4.54;74.53;99045.88;4398936;32;32680;-92
2023/12/12 01:34:12;;;;;;;;;;;;;;;4.43;74.76;99051.03;4398190;32;34537;-91
2023/12/12 01:36:44;;;;;;;;;;;;;;;4.41;75.20;99045.03;4401639;32;33642;-91
2023/12/12 01:39:13;;;;;;;;;;;;;;;4.53;74.94;99040.75;4393886;32;33755;-92
2023/12/12 01:41:46;;;;;;;;;;;;;;;4.59;74.92;99038.19;4405149;32;32900;-92
2023/12/12 01:44:15;;;;;;;;;;;;;;;4.63;75.08;99035.63;4400588;32;33979;-91
2023/12/12 01:46:48;;;;;;;;;;;;;;;4.62;75.27;99033.91;4406432;32;35134;-91
2023/12/12 01:49:16;;;;;;;;;;;;;;;4.77;74.71;99032.19;4403266;32;34040;-92
2023/12/12 01:51:47;;;;;;;;;;;;;;;4.83;74.05;99045.03;4389964;32;32032;-92
2023/12/12 01:54:17;;;;;;;;;;;;;;;4.83;74.28;99033.06;4402033;32;33774;-91
2023/12/12 01:56:51;;;;;;;;;;;;;;;4.69;75.11;99033.06;4400694;32;33695;-91
2023/12/12 01:59:20;;;;;;;;;;;;;;;4.62;75.38;99028.78;4465793;27;32385;-93
2023/12/12 02:01:50;;;;;;;;;;;;;;;4.64;75.03;99039.03;4401864;32;32545;-92
2023/12/12 02:04:18;;;;;;;;;;;;;;;4.67;74.34;99029.62;4399699;32;32310;-92
2023/12/12 02:06:53;;;;;;;;;;;;;;;4.93;73.25;99031.34;4412939;32;33789;-91
2023/12/12 02:09:22;;;;;;;;;;;;;;;4.66;74.63;99040.78;4421279;32;34155;-91
2023/12/12 02:11:56;;;;;;;;;;;;;;;4.69;74.57;99034.78;4416259;32;32976;-89
2023/12/12 02:14:26;;;;;;;;;;;;;;;4.64;74.91;99033.91;4416004;32;34501;-91
2023/12/12 02:16:54;;;;;;;;;;;;;;;4.48;75.33;99035.63;4416024;32;34615;-91
2023/12/12 02:19:23;;;;;;;;;;;;;;;4.70;74.56;99026.19;4415706;32;33878;-92
2023/12/12 02:22:01;;;;;;;;;;;;;;;4.73;74.72;99030.47;4406792;32;34930;-90
2023/12/12 02:24:29;;;;;;;;;;;;;;;4.64;74.79;99032.22;4415482;32;33634;-92
2023/12/12 02:27:04;;;;;;;;;;;;;;;4.66;75.04;99027.06;4415831;32;34995;-93
2023/12/12 02:29:35;;;;;;;;;;;;;;;4.81;74.43;99023.63;4420012;32;33779;-90
2023/12/12 02:32:06;;;;;;;;;;;;;;;4.94;74.50;99020.19;4419591;32;32284;-92
2023/12/12 02:34:44;;;;;;;;;;;;;;;4.92;74.50;99035.59;4419262;32;33586;-93
2023/12/12 02:37:14;;;;;;;;;;;;;;;4.88;75.27;99035.59;4415184;32;33691;-92
2023/12/12 02:39:43;;;;;;;;;;;;;;;4.82;75.44;99030.47;4415366;32;35128;-91
2023/12/12 02:42:11;;;;;;;;;;;;;;;4.93;75.15;99036.47;4418602;32;33803;-93
2023/12/12 02:44:41;;;;;;;;;;;;;;;4.94;75.05;99038.19;4420736;32;33832;-91
2023/12/12 02:47:10;;;;;;;;;;;;;;;4.77;75.28;99022.78;4415322;32;33272;-92
2023/12/12 02:49:39;;;;;;;;;;;;;;;5.10;74.01;99029.59;4415095;32;34164;-89
2023/12/12 02:52:18;;;;;;;;;;;;;;;5.22;74.34;99035.56;4418417;32;32899;-90
2023/12/12 02:54:48;;;;;;;;;;;;;;;4.85;75.58;99030.47;4405418;32;34762;-92
2023/12/12 02:57:16;;;;;;;;;;;;;;;4.80;76.62;99034.75;4407664;32;33947;-89
2023/12/12 02:59:50;;;;;;;;;;;;;;;5.08;75.73;99027.88;4406524;32;33796;-91
2023/12/12 03:02:19;;;;;;;;;;;;;;;4.40;77.93;99045.88;4427115;32;33259;-90
2023/12/12 03:04:47;;;;;;;;;;;;;;;4.50;77.69;99054.47;4420019;32;33860;-91
2023/12/12 03:07:17;;;;;;;;;;;;;;;4.45;77.32;99049.31;4422536;32;33877;-90
2023/12/12 03:09:49;;;;;;;;;;;;;;;4.19;78.36;99048.41;4421056;32;33314;-89
2023/12/12 03:12:18;;;;;;;;;;;;;;;4.21;77.12;99050.13;4420178;32;33252;-91
2023/12/12 03:14:52;;;;;;;;;;;;;;;4.61;75.49;99055.31;4417343;32;33550;-91
2023/12/12 03:17:20;;;;;;;;;;;;;;;4.44;75.84;99060.41;4403420;32;33594;-91
2023/12/12 03:19:49;;;;;;;;;;;;;;;4.38;76.40;99059.59;4563530;26;33348;-90
2023/12/12 03:22:33;;;;;;;;;;;;;;;4.47;75.64;99055.31;4417222;32;33336;-89
2023/12/12 03:25:12;;;;;;;;;;;;;;;4.26;76.57;99057.84;4418531;32;34514;-92
2023/12/12 03:27:42;;;;;;;;;;;;;;;4.44;76.10;99067.28;4418617;32;34348;-91
2023/12/12 03:30:14;;;;;;;;;;;;;;;4.48;75.87;99069.84;4419734;32;34445;-89
2023/12/12 03:32:42;;;;;;;;;;;;;;;4.56;75.53;99069.00;4422878;32;33317;-90
2023/12/12 03:35:17;;;;;;;;;;;;;;;4.62;75.54;99066.47;4415829;32;34140;-93
2023/12/12 03:37:52;;;;;;;;;;;;;;;4.60;75.51;99068.16;4418107;32;33363;-90
2023/12/12 03:40:22;;;;;;;;;;;;;;;4.79;74.62;99069.03;4415439;32;33916;-93
2023/12/12 03:43:04;;;;;;;;;;;;;;;4.84;74.29;99069.88;4412106;32;32613;-93
2023/12/12 03:45:34;;;;;;;;;;;;;;;4.61;75.30;99083.56;4405683;32;32664;-90
2023/12/12 03:48:03;;;;;;;;;;;;;;;4.77;74.80;99073.31;4414854;32;34261;-92
2023/12/12 03:50:37;;;;;;;;;;;;;;;4.80;74.69;99071.59;4402811;32;32541;-90
2023/12/12 03:53:05;;;;;;;;;;;;;;;4.80;74.64;99078.44;4418360;32;33287;-92
2023/12/12 03:55:38;;;;;;;;;;;;;;;4.81;74.69;99085.28;4422303;32;34956;-91
2023/12/12 03:58:07;;;;;;;;;;;;;;;4.87;74.50;99077.59;4422276;32;34566;-93
2023/12/12 04:00:37;;;;;;;;;;;;;;;4.78;74.94;99081.00;4402932;32;32654;-93
2023/12/12 04:03:07;;;;;;;;;;;;;;;4.77;75.19;99079.31;4416942;32;33049;-91
2023/12/12 04:05:37;;;;;;;;;;;;;;;4.74;74.97;99091.31;4419138;32;33421;-91
2023/12/12 04:08:06;;;;;;;;;;;;;;;4.86;74.97;99084.44;4422169;32;33980;-93
2023/12/12 04:10:38;;;;;;;;;;;;;;;4.84;75.00;99086.16;4416575;32;34727;-91
2023/12/12 04:13:07;;;;;;;;;;;;;;;4.76;75.28;99087.00;4403412;32;33123;-92
2023/12/12 04:15:37;;;;;;;;;;;;;;;4.86;75.10;99089.59;4406800;32;33316;-93
2023/12/12 04:18:12;;;;;;;;;;;;;;;4.87;75.04;99080.16;4417798;32;34687;-91
2023/12/12 04:20:40;;;;;;;;;;;;;;;4.82;75.03;99087.03;4421515;32;33725;-92
2023/12/12 04:23:12;;;;;;;;;;;;;;;4.91;74.95;99084.44;4417218;32;32446;-93
2023/12/12 04:25:47;;;;;;;;;;;;;;;4.94;74.89;99086.16;4418777;32;33797;-91
2023/12/12 04:28:16;;;;;;;;;;;;;;;5.00;74.59;99093.84;4416572;32;33620;-92
2023/12/12 04:30:47;;;;;;;;;;;;;;;5.05;74.24;99093.03;4422225;32;33119;-90
2023/12/12 04:33:15;;;;;;;;;;;;;;;4.92;74.75;99087.00;4416824;32;33639;-94
2023/12/12 04:35:47;;;;;;;;;;;;;;;5.13;73.80;99099.00;4416885;32;33622;-91
2023/12/12 04:38:16;;;;;;;;;;;;;;;5.08;74.03;99102.44;4417635;32;33821;-91
2023/12/12 04:40:52;;;;;;;;;;;;;;;5.09;74.09;99107.56;4417286;32;34798;-91
2023/12/12 04:43:22;;;;;;;;;;;;;;;4.99;74.47;99099.88;4524506;27;32767;-84
2023/12/12 04:45:51;;;;;;;;;;;;;;;5.24;73.57;99103.28;4463670;32;34010;-86
2023/12/12 04:48:19;;;;;;;;;;;;;;;5.07;74.10;99099.03;4465001;32;34203;-86
2023/12/12 04:50:48;;;;;;;;;;;;;;;5.06;74.37;99093.87;4464393;32;33623;-85
2023/12/12 04:53:26;;;;;;;;;;;;;;;5.16;74.22;99093.00;4466255;32;33073;-83
2023/12/12 04:55:55;;;;;;;;;;;;;;;4.86;75.59;99088.75;4452289;32;34099;-85
2023/12/12 04:58:28;;;;;;;;;;;;;;;4.93;75.11;99067.31;4448761;32;33682;-85
2023/12/12 05:00:57;;;;;;;;;;;;;;;5.24;74.72;99080.13;4456947;32;33317;-84
2023/12/12 05:03:34;;;;;;;;;;;;;;;5.21;74.41;99093.00;4463686;32;33346;-84
2023/12/12 05:06:09;;;;;;;;;;;;;;;5.22;74.33;99102.41;4467984;32;33810;-85
2023/12/12 05:08:38;;;;;;;;;;;;;;;5.09;74.99;99107.56;4463823;32;33901;-87
2023/12/12 05:11:07;;;;;;;;;;;;;;;5.06;74.96;99114.44;4468304;32;34034;-86
2023/12/12 05:13:37;;;;;;;;;;;;;;;5.19;74.44;99112.72;4463607;32;33547;-84
2023/12/12 05:16:08;;;;;;;;;;;;;;;5.18;74.79;99111.00;4465615;32;34768;-85
2023/12/12 05:18:57;;;;;;;;;;;;;;;5.10;74.62;99109.28;4468239;32;34285;-85
2023/12/12 05:21:40;;;;;;;;;;;;;;;5.09;74.95;99107.56;4467555;32;34819;-85
2023/12/12 05:24:11;;;;;;;;;;;;;;;5.29;74.18;99119.56;4449012;32;33610;-88
2023/12/12 05:26:43;;;;;;;;;;;;;;;5.09;74.93;99112.72;4447828;32;33917;-85
2023/12/12 05:29:18;;;;;;;;;;;;;;;5.08;75.01;99110.16;4450167;32;34796;-86
2023/12/12 05:31:49;;;;;;;;;;;;;;;5.02;74.84;99120.44;4452580;32;33755;-86
2023/12/12 05:34:18;;;;;;;;;;;;;;;5.04;74.71;99117.00;4452949;32;33496;-85
2023/12/12 05:36:47;;;;;;;;;;;;;;;5.07;74.35;99121.28;4463836;32;33558;-87
2023/12/12 05:39:17;;;;;;;;;;;;;;;5.17;73.99;99120.44;4463732;32;34174;-85
2023/12/12 05:41:48;;;;;;;;;;;;;;;5.06;74.51;99128.16;4460151;32;34387;-88
2023/12/12 05:44:23;;;;;;;;;;;;;;;5.05;74.45;99129.00;4452261;32;34004;-85
2023/12/12 05:47:00;;;;;;;;;;;;;;;5.29;74.19;99132.41;4448099;32;34191;-87
2023/12/12 05:49:32;;;;;;;;;;;;;;;5.09;74.96;99133.28;4448314;32;34964;-86
2023/12/12 05:52:05;;;;;;;;;;;;;;;5.26;74.61;99132.41;4475593;27;33909;-93
2023/12/12 05:54:33;;;;;;;;;;;;;;;5.23;74.76;99130.72;4455077;32;32630;-90
2023/12/12 05:57:03;;;;;;;;;;;;;;;5.25;75.53;99131.56;4465539;32;34122;-91
2023/12/12 05:59:31;;;;;;;;;;;;;;;5.16;75.77;99135.88;4461461;32;34185;-91
2023/12/12 06:02:09;;;;;;;;;;;;;;;5.40;75.12;99147.84;4447191;32;33021;-91
2023/12/12 06:04:38;;;;;;;;;;;;;;;5.47;75.04;99147.84;4451449;32;32870;-90
2023/12/12 06:07:07;;;;;;;;;;;;;;;5.56;75.13;99146.97;4462295;32;34388;-92
2023/12/12 06:09:36;;;;;;;;;;;;;;;5.67;74.85;99144.38;4461552;32;34048;-90
2023/12/12 06:12:05;;;;;;;;;;;;;;;5.86;74.48;99142.59;4460332;32;34293;-89
2023/12/12 06:14:37;;;;;;;;;;;;;;;5.43;76.42;99148.69;4459684;32;32060;-92
2023/12/12 06:17:07;;;;;;;;;;;;;;;5.63;76.11;99156.41;4464713;32;33548;-90
2023/12/12 06:19:36;;;;;;;;;;;;;;;5.75;74.92;99168.34;4460342;32;33760;-91
2023/12/12 06:22:05;;;;;;;;;;;;;;;5.58;75.02;99170.97;4460625;32;33713;-90
2023/12/12 06:24:37;;;;;;;;;;;;;;;5.39;75.87;99170.16;4456273;32;33300;-90
2023/12/12 06:27:05;;;;;;;;;;;;;;;5.44;75.43;99168.44;4458792;32;33288;-92
2023/12/12 06:29:35;;;;;;;;;;;;;;;5.63;74.69;99174.41;4457416;32;34760;-91
2023/12/12 06:32:04;;;;;;;;;;;;;;;5.85;74.05;99172.66;4460979;32;34543;-90
2023/12/12 06:34:35;;;;;;;;;;;;;;;5.83;74.82;99171.78;4450379;32;32499;-91
2023/12/12 06:37:05;;;;;;;;;;;;;;;5.84;75.54;99164.91;4447211;32;33076;-91
2023/12/12 06:39:34;;;;;;;;;;;;;;;6.10;74.62;99176.03;4468290;32;34132;-92
2023/12/12 06:42:03;;;;;;;;;;;;;;;6.16;74.53;99172.56;4459392;32;33617;-91
2023/12/12 06:44:37;;;;;;;;;;;;;;;6.21;74.44;99186.31;4465123;32;33292;-90
2023/12/12 06:47:05;;;;;;;;;;;;;;;6.13;74.49;99178.59;4459538;32;34677;-91
2023/12/12 06:49:38;;;;;;;;;;;;;;;5.94;75.62;99179.50;4447466;32;33466;-92
2023/12/12 06:52:07;;;;;;;;;;;;;;;5.78;75.31;99188.97;4451916;32;34224;-93
2023/12/12 06:54:35;;;;;;;;;;;;;;;5.73;75.13;99194.13;4448628;32;33797;-91
2023/12/12 06:57:05;;;;;;;;;;;;;;;5.80;74.62;99197.53;4447873;32;34420;-91
2023/12/12 06:59:37;;;;;;;;;;;;;;;5.72;75.27;99187.22;4448337;32;33345;-93
2023/12/12 07:02:08;;;;;;;;;;;;;;;5.75;74.86;99199.25;4452591;32;34495;-92
2023/12/12 07:04:43;;;;;;;;;;;;;;;5.75;74.80;99202.69;4450756;32;32678;-92
2023/12/12 07:07:13;;;;;;;;;;;;;;;5.76;74.65;99204.41;4447157;32;34738;-92
2023/12/12 07:09:43;;;;;;;;;;;;;;;5.77;74.73;99198.41;4432761;32;33285;-94
2023/12/12 07:12:12;;;;;;;;;;;;;;;5.76;75.15;99204.41;4453303;32;33636;-92
2023/12/12 07:14:45;;;;;;;;;;;;;;;5.82;74.71;99202.66;4438696;32;31623;-93
2023/12/12 07:17:14;;;;;;;;;;;;;;;5.75;74.93;99212.09;4449112;32;33847;-94
2023/12/12 07:19:45;;;;;;;;;;;;;;;5.84;74.77;99209.53;4442154;32;33973;-93
2023/12/12 07:22:15;;;;;;;;;;;;;;;5.77;74.89;99210.41;4441552;32;32495;-93
2023/12/12 07:24:48;;;;;;;;;;;;;;;6.06;73.88;99212.09;4448258;32;33252;-93
2023/12/12 07:27:17;;;;;;;;;;;;;;;6.13;73.43;99206.06;4445648;32;32812;-92
2023/12/12 07:29:50;;;;;;;;;;;;;;;6.11;73.35;99202.63;4440491;32;32867;-91
2023/12/12 07:32:19;;;;;;;;;;;;;;;6.14;73.56;99207.78;4440287;32;33354;-94
2023/12/12 07:34:50;;;;;;;;;;;;;;;6.07;73.88;99209.53;4459665;32;33912;-94
2023/12/12 07:38:03;;;;;;;;;;;;;;;6.10;73.34;99214.66;4461682;32;34429;-94
2023/12/12 07:41:12;;;;;;;;;;;;;;;5.97;74.18;99218.13;4469486;32;34678;-94
2023/12/12 07:43:44;;;;;;;;;;;;;;;6.22;73.72;99218.91;4461783;32;34011;-93
2023/12/12 07:46:13;;;;;;;;;;;;;;;6.22;74.36;99226.66;4448684;32;33356;-94
2023/12/12 07:48:43;;;;;;;;;;;;;;;6.17;74.59;99223.22;4447501;32;33693;-93
2023/12/12 07:51:12;;;;;;;;;;;;;;;6.19;75.27;99239.53;4463119;32;33483;-92
2023/12/12 07:53:51;;;;;;;;;;;;;;;6.39;74.89;99235.16;4453100;32;34462;-93
2023/12/12 07:56:27;;;;;;;;;;;;;;;6.35;74.63;99224.88;4434556;32;32382;-94
2023/12/12 07:58:56;;;;;;;;;;;;;;;6.31;75.44;99230.91;4432908;32;32280;-93
2023/12/12 08:01:32;;;;;;;;;;;;;;;6.47;75.21;99239.44;4433932;32;34845;-92
2023/12/12 08:04:01;;;;;;;;;;;;;;;6.60;75.13;99233.38;4450843;32;34236;-93
2023/12/12 08:06:30;;;;;;;;;;;;;;;7.01;73.49;99237.47;4453095;32;32729;-93
2023/12/12 08:09:00;;;;;;;;;;;;;;;7.22;72.62;99249.34;4447787;32;33153;-91
2023/12/12 08:11:35;;;;;;;;;;;;;;;7.40;71.59;99240.63;4447524;32;34745;-91
2023/12/12 08:14:03;;;;;;;;;;;;;;;7.45;71.30;99239.72;4434438;32;32878;-93
2023/12/12 08:16:32;;;;;;;;;;;;;;;7.23;72.92;99230.44;4451855;32;32990;-92
2023/12/12 08:19:01;;;;;;;;;;;;;;;7.49;71.77;99227.66;4448176;32;35589;-92
2023/12/12 08:21:34;;;;;;;;;;;;;;;7.37;72.95;99232.91;4446403;32;34051;-93
2023/12/12 08:24:06;;;;;;;;;;;;;;;7.60;71.17;99231.00;4447410;32;34414;-94
2023/12/12 08:26:47;;;;;;;;;;;;;;;7.56;72.00;99236.19;4446435;32;33870;-92
2023/12/12 08:29:19;;;;;;;;;;;;;;;7.58;71.87;99237.03;4453604;32;33625;-92
2023/12/12 08:31:47;;;;;;;;;;;;;;;7.79;71.00;99241.19;4449299;32;33882;-93
2023/12/12 08:34:19;;;;;;;;;;;;;;;7.85;70.94;99238.50;4454343;32;34400;-92
2023/12/12 08:36:47;;;;;;;;;;;;;;;7.76;71.44;99241.22;4454154;32;32496;-93
2023/12/12 08:39:25;;;;;;;;;;;;;;;7.95;70.46;99237.59;4454523;32;34539;-92
2023/12/12 08:41:54;;;;;;;;;;;;;;;7.85;71.55;99239.41;4448648;32;33852;-96
2023/12/12 08:44:33;;;;;;;;;;;;;;;8.02;70.90;99230.59;4456848;32;33994;-93
2023/12/12 08:47:30;;;;;;;;;;;;;;;7.81;72.56;99247.19;4448767;32;34027;-94
2023/12/12 08:50:20;;;;;;;;;;;;;;;7.95;72.08;99244.44;4445900;32;33957;-93
2023/12/12 08:53:29;;;;;;;;;;;;;;;7.94;71.91;99245.34;4434087;32;33444;-96
2023/12/12 08:57:21;;;;;;;;;;;;;;;8.41;69.46;99242.28;4448956;32;33828;-95
2023/12/12 09:00:29;;;;;;;;;;;;;;;8.46;68.67;99239.66;4434119;32;32298;-92
2023/12/12 09:03:04;;;;;;;;;;;;;;;8.20;68.68;99245.91;4435865;32;33338;-94
2023/12/12 09:05:37;;;;;;;;;;;;;;;8.36;67.83;99236.28;4440595;32;32590;-93
2023/12/12 09:08:27;;;;;;;;;;;;;;;8.38;67.46;99239.69;4440786;32;32408;-93
2023/12/12 09:11:17;;;;;;;;;;;;;;;8.43;67.45;99243.12;4455846;32;33657;-96
2023/12/12 09:14:36;;;;;;;;;;;;;;;8.66;66.51;99247.16;4459007;32;32858;-93
2023/12/12 09:44:03;;;;;;;;;;;;;;;9.22;63.76;99227.41;4536289;27;20000;-95
2023/12/12 09:47:29;;;;;;;;;;;;;;;9.24;63.76;99228.25;4398589;32;35076;-94
2023/12/12 10:12:41;;;;;;;;;;;;;;;9.69;60.83;99214.56;4435976;27;20011;-95
2023/12/12 10:15:33;;;;;;;;;;;;;;;9.73;61.07;99211.03;4345499;32;32674;-94
2023/12/12 10:18:22;;;;;;;;;;;;;;;9.56;61.87;99209.59;4341061;32;31544;-96
2023/12/12 10:21:51;;;;;;;;;;;;;;;9.38;62.02;99203.00;4340352;32;32953;-94
2023/12/12 10:25:10;;;;;;;;;;;;;;;9.65;61.20;99200.81;4352115;32;33250;-95
2023/12/12 10:28:44;;;;;;;;;;;;;;;9.87;60.37;99200.44;4370182;32;33087;-94
2023/12/12 10:31:36;;;;;;;;;;;;;;;9.42;61.87;99195.16;4385851;32;34386;-93
2023/12/12 10:34:07;;;;;;;;;;;;;;;9.45;62.32;99195.09;4372528;32;34771;-94
2023/12/12 10:36:40;;;;;;;;;;;;;;;9.72;60.87;99199.84;4374424;32;33264;-92
2023/12/12 10:39:12;;;;;;;;;;;;;;;9.81;60.48;99212.62;4400151;32;34387;-93
2023/12/12 10:41:51;;;;;;;;;;;;;;;9.76;61.27;99217.03;4376528;32;32839;-92
2023/12/12 10:44:28;;;;;;;;;;;;;;;9.59;62.36;99219.91;4393091;32;34040;-93
2023/12/12 10:47:01;;;;;;;;;;;;;;;9.62;62.61;99224.19;4391158;32;32906;-93
2023/12/12 10:49:32;;;;;;;;;;;;;;;9.62;63.27;99219.00;4385465;32;33797;-93
2023/12/12 10:52:06;;;;;;;;;;;;;;;9.46;63.76;99222.72;4386555;32;33733;-93
2023/12/12 10:54:47;;;;;;;;;;;;;;;9.52;63.41;99214.84;4390399;32;33564;-92
2023/12/12 10:57:17;;;;;;;;;;;;;;;9.50;63.50;99226.97;4388313;32;33560;-93
2023/12/12 10:59:47;;;;;;;;;;;;;;;9.50;63.38;99230.41;4385474;32;34033;-93
2023/12/12 11:02:30;;;;;;;;;;;;;;;9.80;63.12;99221.25;4373419;32;31357;-93
2023/12/12 11:05:03;;;;;;;;;;;;;;;9.83;61.13;99217.75;4382191;32;32280;-92
2023/12/12 11:07:31;;;;;;;;;;;;;;;9.89;60.56;99211.62;4400414;32;33780;-92
2023/12/12 11:10:01;;;;;;;;;;;;;;;9.83;61.35;99216.06;4390616;32;33271;-92
2023/12/12 11:12:32;;;;;;;;;;;;;;;10.02;59.87;99208.78;4375699;32;32179;-92
2023/12/12 11:15:12;;;;;;;;;;;;;;;10.13;59.52;99205.16;4378502;32;32644;-91
2023/12/12 11:17:47;;;;;;;;;;;;;;;10.04;59.16;99203.56;4389165;32;33340;-93
2023/12/12 11:20:17;;;;;;;;;;;;;;;10.03;59.74;99207.91;4407420;32;33904;-92
2023/12/12 11:22:48;;;;;;;;;;;;;;;10.30;59.23;99212.62;4406756;32;33386;-91
2023/12/12 11:25:19;;;;;;;;;;;;;;;10.04;59.62;99212.19;4390760;32;33197;-92
2023/12/12 11:27:49;;;;;;;;;;;;;;;10.31;58.41;99216.91;4403160;32;34839;-92
2023/12/12 11:30:20;;;;;;;;;;;;;;;10.25;58.39;99210.09;4405949;32;34166;-92
2023/12/12 11:32:49;;;;;;;;;;;;;;;10.08;59.63;99207.81;4402692;32;33347;-92
2023/12/12 11:35:28;;;;;;;;;;;;;;;10.14;58.73;99207.69;4401645;32;33783;-92
2023/12/12 11:38:04;;;;;;;;;;;;;;;10.32;58.26;99213.47;4401199;32;33595;-92
2023/12/12 11:40:37;;;;;;;;;;;;;;;10.51;56.62;99208.72;4386739;32;34073;-91
2023/12/12 11:43:19;;;;;;;;;;;;;;;10.31;57.61;99211.72;4391695;32;33228;-91
2023/12/12 11:45:49;;;;;;;;;;;;;;;10.39;57.32;99202.94;4391009;32;34409;-90
2023/12/12 11:48:22;;;;;;;;;;;;;;;10.44;57.27;99210.63;4387556;32;34089;-91
2023/12/12 11:50:51;;;;;;;;;;;;;;;10.43;57.05;99196.78;4388324;32;33896;-91
2023/12/12 11:53:34;;;;;;;;;;;;;;;10.25;57.34;99203.16;4392160;32;33421;-91
2023/12/12 11:56:03;;;;;;;;;;;;;;;10.12;58.86;99206.84;4402810;32;33952;-92
2023/12/12 11:58:32;;;;;;;;;;;;;;;10.20;59.53;99206.75;4386528;32;34276;-90
2023/12/12 12:01:05;;;;;;;;;;;;;;;10.00;60.03;99204.50;4389694;32;33776;-91
2023/12/12 12:03:35;;;;;;;;;;;;;;;10.19;59.93;99200.66;4393248;32;34068;-91
2023/12/12 12:06:08;;;;;;;;;;;;;;;10.14;60.23;99191.28;4386882;32;33754;-91
2023/12/12 12:08:39;;;;;;;;;;;;;;;10.21;58.93;99188.53;4393667;32;34043;-92
2023/12/12 12:11:08;;;;;;;;;;;;;;;10.33;57.76;99186.63;4399242;32;33723;-89
2023/12/12 12:13:37;;;;;;;;;;;;;;;10.35;56.03;99184.87;4396868;32;32800;-88
2023/12/12 12:16:10;;;;;;;;;;;;;;;10.42;55.47;99176.94;4394092;32;33321;-89
2023/12/12 12:18:39;;;;;;;;;;;;;;;10.36;56.52;99182.22;4400028;32;34183;-91
2023/12/12 12:21:11;;;;;;;;;;;;;;;10.00;58.40;99174.28;4393029;32;34582;-90
2023/12/12 12:23:39;;;;;;;;;;;;;;;10.18;58.12;99165.28;4392230;32;33998;-90
2023/12/12 12:26:12;;;;;;;;;;;;;;;10.21;57.80;99167.81;4388545;32;34531;-90
2023/12/12 12:28:40;;;;;;;;;;;;;;;10.14;58.94;99166.22;4392619;32;34600;-91
2023/12/12 12:31:10;;;;;;;;;;;;;;;10.27;59.55;99166.84;4397882;32;34143;-90
2023/12/12 12:33:40;;;;;;;;;;;;;;;10.18;59.79;99170.47;4395530;32;33251;-90
2023/12/12 12:36:09;;;;;;;;;;;;;;;10.04;60.88;99168.13;4394620;32;34171;-90
2023/12/12 12:38:41;;;;;;;;;;;;;;;10.26;60.18;99171.16;4396635;32;34387;-91
2023/12/12 12:41:21;;;;;;;;;;;;;;;10.04;60.50;99162.09;4385093;32;34033;-90
2023/12/12 12:43:57;;;;;;;;;;;;;;;9.99;60.36;99163.94;4399215;32;33526;-90
2023/12/12 12:46:27;;;;;;;;;;;;;;;9.95;60.70;99162.28;4394704;32;34861;-90
2023/12/12 12:48:59;;;;;;;;;;;;;;;9.83;61.84;99159.06;4393551;32;35460;-90
2023/12/12 12:51:28;;;;;;;;;;;;;;;9.68;62.22;99168.84;4397619;32;34438;-90
2023/12/12 12:53:57;;;;;;;;;;;;;;;9.80;62.91;99166.00;4399220;32;33378;-90
2023/12/12 12:56:29;;;;;;;;;;;;;;;9.85;62.61;99164.19;4396437;32;33388;-90
2023/12/12 12:58:57;;;;;;;;;;;;;;;9.79;62.89;99157.41;4395056;32;33872;-90
2023/12/12 13:01:30;;;;;;;;;;;;;;;9.53;64.20;99159.59;4398099;32;33810;-89
2023/12/12 13:04:02;;;;;;;;;;;;;;;9.67;64.49;99146.41;4395083;32;33633;-90
2023/12/12 13:06:31;;;;;;;;;;;;;;;9.69;64.71;99153.28;4397635;32;33710;-89
2023/12/12 13:08:59;;;;;;;;;;;;;;;9.66;64.87;99152.47;4389001;32;33679;-90
2023/12/12 13:11:31;;;;;;;;;;;;;;;9.57;65.43;99148.31;4392532;32;35190;-90
2023/12/12 13:14:00;;;;;;;;;;;;;;;9.66;65.30;99135.19;4386397;32;33349;-88
2023/12/12 13:16:28;;;;;;;;;;;;;;;9.66;64.95;99129.16;4377132;32;33697;-89
2023/12/12 13:18:58;;;;;;;;;;;;;;;9.42;65.67;99125.25;4386894;32;33558;-88
2023/12/12 13:21:36;;;;;;;;;;;;;;;9.49;65.37;99124.28;4387427;32;34602;-88
2023/12/12 13:24:06;;;;;;;;;;;;;;;9.50;65.67;99124.25;4386571;32;33682;-89
2023/12/12 13:26:35;;;;;;;;;;;;;;;9.32;65.97;99132.34;4375183;32;33266;-88
2023/12/12 13:29:03;;;;;;;;;;;;;;;9.34;65.94;99136.59;4391327;32;33839;-89
2023/12/12 13:31:40;;;;;;;;;;;;;;;9.16;66.34;99131.75;4390024;32;33360;-89
2023/12/12 13:34:10;;;;;;;;;;;;;;;9.09;66.81;99138.75;4387008;32;32862;-88
2023/12/12 13:36:40;;;;;;;;;;;;;;;9.02;67.15;99157.00;4386196;32;34837;-90
2023/12/12 13:39:14;;;;;;;;;;;;;;;9.02;67.31;99159.59;4389116;32;33862;-89
2023/12/12 13:41:47;;;;;;;;;;;;;;;9.07;66.90;99162.94;4391465;32;34550;-89
2023/12/12 13:44:19;;;;;;;;;;;;;;;8.96;67.23;99156.22;4386920;32;34038;-91
2023/12/12 13:46:47;;;;;;;;;;;;;;;8.94;67.10;99157.97;4386701;32;34122;-90
2023/12/12 13:49:17;;;;;;;;;;;;;;;8.92;67.06;99159.72;4386013;32;34582;-90
2023/12/12 13:51:46;;;;;;;;;;;;;;;8.79;67.54;99168.50;4390183;32;34049;-91
2023/12/12 13:54:18;;;;;;;;;;;;;;;8.65;67.97;99166.16;4386046;32;33943;-90
2023/12/12 13:56:46;;;;;;;;;;;;;;;8.56;68.01;99174.03;4371523;32;33532;-90
2023/12/12 13:59:16;;;;;;;;;;;;;;;8.69;67.85;99175.56;4385678;32;33327;-90
2023/12/12 14:01:46;;;;;;;;;;;;;;;8.57;67.93;99178.31;4386901;32;33894;-89
2023/12/12 14:04:19;;;;;;;;;;;;;;;8.46;68.53;99175.88;4391282;32;33109;-89
2023/12/12 14:06:48;;;;;;;;;;;;;;;8.59;67.73;99170.53;4388268;32;34550;-90
2023/12/12 14:09:17;;;;;;;;;;;;;;;8.54;67.60;99163.69;4386514;32;34248;-88
2023/12/12 14:11:47;;;;;;;;;;;;;;;8.39;67.69;99163.88;4386094;32;35153;-88
2023/12/12 14:14:15;;;;;;;;;;;;;;;8.39;67.74;99161.28;4391132;32;32762;-88
2023/12/12 14:16:50;;;;;;;;;;;;;;;8.13;68.50;99159.88;4386253;32;33644;-89